createdAt,value
2018-12-02T00:00:18.874Z,28.83
2018-12-02T00:02:54.221Z,33.70
2018-12-02T00:08:39.046Z,29.07
2018-12-02T00:11:07.293Z,25.50
2018-12-02T00:13:35.470Z,25.47
2018-12-02T00:16:03.678Z,27.53
2018-12-02T00:18:31.963Z,29.07
2018-12-02T00:21:00.183Z,25.30
2018-12-02T00:23:28.345Z,30.13
2018-12-02T00:25:56.597Z,25.30
2018-12-02T00:28:24.842Z,26.80
2018-12-02T00:30:52.992Z,23.22
2018-12-02T00:33:21.294Z,28.50
2018-12-02T00:35:49.510Z,23.67
2018-12-02T00:38:17.698Z,29.07
2018-12-02T00:40:45.897Z,25.93
2018-12-02T00:43:14.204Z,25.70
2018-12-02T00:45:42.225Z,25.20
2018-12-02T00:48:10.181Z,23.65
2018-12-02T00:50:38.153Z,25.85
2018-12-02T00:53:07.870Z,30.77
2018-12-02T00:55:38.673Z,17.32
2018-12-02T00:58:06.882Z,26.30
2018-12-02T01:00:35.167Z,25.52
2018-12-02T01:03:03.494Z,23.42
2018-12-02T01:05:31.665Z,16.35
2018-12-02T01:07:59.833Z,17.42
2018-12-02T01:10:28.021Z,18.37
2018-12-02T01:12:57.305Z,15.00
2018-12-02T01:15:26.623Z,16.55
2018-12-02T01:17:54.824Z,18.85
2018-12-02T01:20:23.679Z,16.95
2018-12-02T01:22:51.841Z,17.62
2018-12-02T01:25:20.017Z,26.80
2018-12-02T01:27:48.253Z,23.32
2018-12-02T01:30:18.236Z,21.97
2018-12-02T01:32:46.455Z,21.87
2018-12-02T01:35:15.593Z,21.40
2018-12-02T01:37:43.805Z,18.87
2018-12-02T01:40:14.987Z,21.20
2018-12-02T01:42:43.141Z,19.50
2018-12-02T01:45:15.387Z,16.62
2018-12-02T01:47:43.562Z,21.82
2018-12-02T01:50:15.591Z,21.33
2018-12-02T01:52:45.626Z,14.80
2018-12-02T01:55:13.777Z,15.25
2018-12-02T01:57:41.698Z,15.95
2018-12-02T02:00:13.917Z,16.82
2018-12-02T02:02:42.106Z,12.80
2018-12-02T02:05:10.295Z,15.88
2018-12-02T02:07:38.477Z,15.65
2018-12-02T02:10:11.607Z,12.28
2018-12-02T02:12:39.950Z,12.60
2018-12-02T02:15:09.706Z,14.58
2018-12-02T02:17:37.898Z,15.58
2018-12-02T02:20:11.879Z,13.40
2018-12-02T02:22:40.040Z,12.30
2018-12-02T02:25:10.093Z,11.33
2018-12-02T02:27:38.684Z,12.33
2018-12-02T02:30:13.637Z,8.38
2018-12-02T02:32:41.865Z,8.48
2018-12-02T02:35:10.454Z,13.32
2018-12-02T02:37:38.822Z,14.05
2018-12-02T02:40:14.228Z,12.03
2018-12-02T02:42:42.371Z,9.73
2018-12-02T02:45:11.266Z,12.90
2018-12-02T02:47:39.483Z,11.55
2018-12-02T02:50:12.808Z,16.15
2018-12-02T02:52:41.598Z,13.20
2018-12-02T02:55:09.783Z,16.27
2018-12-02T02:57:37.928Z,13.28
2018-12-02T03:00:12.581Z,14.73
2018-12-02T03:02:40.827Z,11.70
2018-12-02T03:05:09.956Z,15.78
2018-12-02T03:07:38.151Z,18.82
2018-12-02T03:10:09.516Z,13.25
2018-12-02T03:12:37.705Z,16.90
2018-12-02T03:15:07.852Z,10.43
2018-12-02T03:17:36.101Z,11.88
2018-12-02T03:20:06.037Z,8.08
2018-12-02T03:22:33.970Z,15.08
2018-12-02T03:25:02.163Z,10.90
2018-12-02T03:27:30.341Z,12.10
2018-12-02T03:29:58.491Z,10.30
2018-12-02T03:32:26.649Z,17.35
2018-12-02T03:34:54.803Z,10.20
2018-12-02T03:37:22.947Z,13.45
2018-12-02T03:39:51.109Z,11.38
2018-12-02T03:42:19.303Z,11.83
2018-12-02T03:44:47.588Z,10.45
2018-12-02T03:47:15.743Z,9.95
2018-12-02T03:49:43.913Z,10.85
2018-12-02T03:52:12.069Z,9.20
2018-12-02T03:54:40.222Z,8.50
2018-12-02T03:57:08.392Z,6.25
2018-12-02T03:59:36.638Z,6.28
2018-12-02T04:02:04.912Z,7.33
2018-12-02T04:04:33.056Z,7.12
2018-12-02T04:07:01.292Z,9.65
2018-12-02T04:09:29.493Z,10.95
2018-12-02T04:11:57.786Z,13.68
2018-12-02T04:14:26.016Z,7.25
2018-12-02T04:16:54.270Z,6.35
2018-12-02T04:19:22.456Z,7.12
2018-12-02T04:21:51.524Z,6.30
2018-12-02T04:24:18.894Z,8.18
2018-12-02T04:26:47.157Z,5.53
2018-12-02T04:29:15.416Z,8.25
2018-12-02T04:31:43.685Z,5.97
2018-12-02T04:34:11.933Z,7.05
2018-12-02T04:36:40.135Z,6.35
2018-12-02T04:39:08.843Z,5.80
2018-12-02T04:41:37.094Z,6.60
2018-12-02T04:44:05.600Z,8.15
2018-12-02T04:46:33.857Z,8.80
2018-12-02T04:49:02.098Z,15.60
2018-12-02T04:51:30.405Z,18.27
2018-12-02T04:54:05.024Z,14.15
2018-12-02T04:56:33.254Z,6.75
2018-12-02T04:59:01.440Z,9.03
2018-12-02T05:01:29.649Z,8.78
2018-12-02T05:03:57.841Z,6.30
2018-12-02T05:06:26.101Z,5.67
2018-12-02T05:08:54.250Z,8.03
2018-12-02T05:11:22.528Z,6.25
2018-12-02T05:13:50.735Z,8.73
2018-12-02T05:16:18.876Z,9.58
2018-12-02T05:18:47.030Z,6.20
2018-12-02T05:21:15.169Z,6.17
2018-12-02T05:23:43.308Z,4.80
2018-12-02T05:26:11.557Z,5.12
2018-12-02T05:28:39.730Z,6.72
2018-12-02T05:31:07.909Z,10.35
2018-12-02T05:33:36.086Z,7.78
2018-12-02T05:36:04.389Z,8.48
2018-12-02T05:38:32.524Z,7.12
2018-12-02T05:41:00.669Z,6.85
2018-12-02T05:43:28.822Z,10.43
2018-12-02T05:45:57.045Z,10.98
2018-12-02T05:48:25.218Z,7.87
2018-12-02T05:50:53.362Z,11.48
2018-12-02T05:53:21.514Z,8.87
2018-12-02T05:55:49.695Z,8.80
2018-12-02T05:58:17.861Z,10.88
2018-12-02T06:00:46.075Z,6.25
2018-12-02T06:03:14.265Z,9.37
2018-12-02T06:05:42.413Z,6.67
2018-12-02T06:08:10.602Z,7.08
2018-12-02T06:10:38.749Z,7.73
2018-12-02T06:13:06.938Z,8.80
2018-12-02T06:15:35.085Z,8.18
2018-12-02T06:18:03.317Z,9.90
2018-12-02T06:20:31.258Z,7.83
2018-12-02T06:22:59.421Z,17.17
2018-12-02T06:25:27.408Z,20.63
2018-12-02T06:27:55.568Z,18.90
2018-12-02T06:30:26.803Z,15.77
2018-12-02T06:32:55.993Z,15.40
2018-12-02T06:35:24.149Z,21.73
2018-12-02T06:37:53.903Z,43.47
2018-12-02T06:40:23.852Z,27.15
2018-12-02T06:42:52.581Z,19.37
2018-12-02T06:45:21.066Z,19.23
2018-12-02T06:47:49.234Z,15.77
2018-12-02T06:50:20.354Z,14.50
2018-12-02T06:52:48.524Z,14.10
2018-12-02T06:55:18.637Z,9.97
2018-12-02T06:57:48.248Z,11.77
2018-12-02T07:00:25.366Z,14.37
2018-12-02T07:03:04.574Z,17.70
2018-12-02T07:05:35.400Z,15.20
2018-12-02T07:08:03.591Z,30.50
2018-12-02T07:10:31.745Z,34.50
2018-12-02T07:12:59.929Z,21.67
2018-12-02T07:15:28.083Z,19.97
2018-12-02T07:17:56.237Z,19.33
2018-12-02T07:20:24.420Z,15.80
2018-12-02T07:22:52.676Z,12.17
2018-12-02T07:25:20.822Z,8.50
2018-12-02T07:27:48.960Z,10.93
2018-12-02T07:30:17.106Z,24.77
2018-12-02T07:32:45.272Z,19.50
2018-12-02T07:35:14.136Z,13.43
2018-12-02T07:37:45.365Z,12.60
2018-12-02T07:40:21.628Z,12.97
2018-12-02T07:42:49.853Z,15.60
2018-12-02T07:45:18.009Z,22.43
2018-12-02T07:47:46.201Z,15.40
2018-12-02T07:50:14.345Z,9.63
2018-12-02T07:52:42.561Z,23.17
2018-12-02T07:55:10.695Z,13.63
2018-12-02T07:57:38.839Z,12.30
2018-12-02T08:00:12.512Z,15.87
2018-12-02T08:02:40.941Z,15.20
2018-12-02T08:05:12.309Z,17.87
2018-12-02T08:07:40.869Z,23.00
2018-12-02T08:10:11.433Z,30.27
2018-12-02T08:12:39.649Z,30.03
2018-12-02T08:15:11.441Z,22.00
2018-12-02T08:17:39.656Z,27.47
2018-12-02T08:20:11.772Z,117.10
2018-12-02T08:22:40.111Z,37.23
2018-12-02T08:25:11.489Z,41.13
2018-12-02T08:27:39.689Z,20.30
2018-12-02T08:30:12.650Z,16.20
2018-12-02T08:32:40.930Z,21.10
2018-12-02T08:35:10.021Z,23.60
2018-12-02T08:37:39.142Z,14.47
2018-12-02T08:40:10.882Z,16.70
2018-12-02T08:42:39.098Z,13.87
2018-12-02T08:45:12.577Z,13.10
2018-12-02T08:47:41.336Z,12.30
2018-12-02T08:50:11.153Z,10.63
2018-12-02T08:52:39.340Z,14.87
2018-12-02T08:55:10.187Z,14.63
2018-12-02T08:57:38.426Z,10.90
2018-12-02T09:00:10.659Z,12.80
2018-12-02T09:02:38.857Z,11.40
2018-12-02T09:05:09.515Z,16.63
2018-12-02T09:07:37.717Z,13.53
2018-12-02T09:10:10.686Z,19.20
2018-12-02T09:12:38.940Z,37.43
2018-12-02T09:15:08.685Z,86.57
2018-12-02T09:17:36.995Z,165.13
2018-12-02T09:20:10.983Z,194.93
2018-12-02T09:22:39.674Z,181.77
2018-12-02T09:25:08.867Z,71.53
2018-12-02T09:27:37.204Z,71.77
2018-12-02T09:30:12.347Z,51.63
2018-12-02T09:32:40.558Z,34.90
2018-12-02T09:35:09.625Z,27.20
2018-12-02T09:37:37.868Z,28.90
2018-12-02T09:40:09.945Z,29.80
2018-12-02T09:42:38.382Z,24.20
2018-12-02T09:45:10.609Z,32.20
2018-12-02T09:47:38.849Z,36.80
2018-12-02T09:50:14.657Z,36.47
2018-12-02T09:52:42.864Z,38.83
2018-12-02T09:55:16.792Z,52.80
2018-12-02T09:57:45.086Z,40.70
2018-12-02T10:00:15.929Z,36.73
2018-12-02T10:02:44.129Z,35.53
2018-12-02T10:05:12.336Z,30.70
2018-12-02T10:07:40.647Z,28.90
2018-12-02T10:10:13.332Z,27.43
2018-12-02T10:12:42.909Z,25.13
2018-12-02T10:15:12.621Z,25.70
2018-12-02T10:17:40.884Z,35.43
2018-12-02T10:20:15.449Z,25.73
2018-12-02T10:22:44.508Z,27.70
2018-12-02T10:25:13.917Z,30.73
2018-12-02T10:27:42.076Z,19.70
2018-12-02T10:30:12.670Z,25.03
2018-12-02T10:32:40.841Z,27.07
2018-12-02T10:35:08.998Z,27.83
2018-12-02T10:37:37.198Z,32.53
2018-12-02T10:40:08.997Z,27.57
2018-12-02T10:42:37.214Z,25.83
2018-12-02T10:45:06.826Z,41.83
2018-12-02T10:47:34.974Z,32.17
2018-12-02T10:50:03.171Z,25.93
2018-12-02T10:52:31.312Z,30.40
2018-12-02T10:54:59.488Z,31.73
2018-12-02T10:57:27.685Z,31.93
2018-12-02T10:59:55.852Z,29.97
2018-12-02T11:02:24.029Z,39.43
2018-12-02T11:04:52.208Z,47.23
2018-12-02T11:07:20.377Z,66.10
2018-12-02T11:09:48.553Z,34.43
2018-12-02T11:12:16.718Z,100.70
2018-12-02T11:14:44.908Z,99.00
2018-12-02T11:17:13.794Z,58.03
2018-12-02T11:19:41.779Z,16.10
2018-12-02T11:22:09.709Z,33.37
2018-12-02T11:24:37.859Z,26.43
2018-12-02T11:27:07.434Z,20.70
2018-12-02T11:29:35.593Z,6.93
2018-12-02T11:32:03.744Z,10.23
2018-12-02T11:34:31.941Z,6.97
2018-12-02T11:37:00.697Z,4.83
2018-12-02T11:39:28.890Z,5.27
2018-12-02T11:41:57.032Z,7.53
2018-12-02T11:44:25.194Z,6.37
2018-12-02T11:46:53.379Z,7.27
2018-12-02T11:49:21.536Z,18.30
2018-12-02T11:51:49.790Z,11.70
2018-12-02T11:54:17.971Z,17.97
2018-12-02T11:56:46.136Z,52.37
2018-12-02T11:59:14.318Z,35.47
2018-12-02T12:01:42.612Z,49.57
2018-12-02T12:04:10.845Z,96.53
2018-12-02T12:06:39.002Z,29.23
2018-12-02T12:09:08.478Z,29.57
2018-12-02T12:11:36.693Z,49.80
2018-12-02T12:14:04.954Z,74.10
2018-12-02T12:16:33.198Z,18.10
2018-12-02T12:19:01.393Z,23.33
2018-12-02T12:21:29.345Z,124.60
2018-12-02T12:23:57.549Z,73.33
2018-12-02T12:26:25.778Z,47.20
2018-12-02T12:28:53.989Z,43.77
2018-12-02T12:31:22.193Z,21.27
2018-12-02T12:33:50.434Z,8.63
2018-12-02T12:36:18.625Z,8.13
2018-12-02T12:38:46.953Z,11.03
2018-12-02T12:41:15.388Z,8.20
2018-12-02T12:43:44.868Z,16.40
2018-12-02T12:46:13.180Z,135.63
2018-12-02T12:48:41.434Z,73.10
2018-12-02T12:51:09.628Z,76.07
2018-12-02T12:53:37.845Z,74.33
2018-12-02T12:56:06.091Z,235.77
2018-12-02T12:58:34.322Z,23.50
2018-12-02T13:01:02.683Z,6.63
2018-12-02T13:03:30.889Z,3.20
2018-12-02T13:05:59.147Z,4.20
2018-12-02T13:08:27.370Z,2.20
2018-12-02T13:10:55.589Z,2.80
2018-12-02T13:13:23.877Z,3.73
2018-12-02T13:15:52.127Z,1.80
2018-12-02T13:18:20.391Z,111.83
2018-12-02T13:20:52.586Z,96.63
2018-12-02T13:23:20.907Z,47.27
2018-12-02T13:25:49.171Z,17.70
2018-12-02T13:28:17.404Z,22.57
2018-12-02T13:30:45.645Z,23.67
2018-12-02T13:33:13.907Z,11.93
2018-12-02T13:35:42.129Z,22.53
2018-12-02T13:38:10.358Z,5.70
2018-12-02T13:40:39.741Z,4.03
2018-12-02T13:43:12.874Z,15.60
2018-12-02T13:45:41.131Z,132.93
2018-12-02T13:48:09.329Z,9.17
2018-12-02T13:50:37.562Z,224.23
2018-12-02T13:53:06.473Z,194.27
2018-12-02T13:55:34.768Z,477.80
2018-12-02T13:58:02.968Z,21.60
2018-12-02T14:00:31.484Z,73.93
2018-12-02T14:03:06.824Z,38.50
2018-12-02T14:05:36.104Z,42.60
2018-12-02T14:08:04.339Z,10.73
2018-12-02T14:10:32.636Z,277.87
2018-12-02T14:13:02.567Z,534.50
2018-12-02T14:16:35.356Z,32.47
2018-12-02T14:19:07.605Z,150.50
2018-12-02T14:21:35.803Z,353.07
2018-12-02T14:24:05.633Z,513.50
2018-12-02T14:26:33.862Z,26.23
2018-12-02T14:29:06.674Z,531.10
2018-12-02T14:31:36.359Z,93.97
2018-12-02T14:34:05.285Z,25.93
2018-12-02T14:36:33.332Z,3.83
2018-12-02T14:39:01.486Z,4.57
2018-12-02T14:41:29.665Z,2.03
2018-12-02T14:43:57.928Z,398.47
2018-12-02T14:46:26.171Z,702.70
2018-12-02T14:48:54.337Z,806.87
2018-12-02T14:51:22.550Z,291.97
2018-12-02T14:53:50.793Z,224.40
2018-12-02T14:56:18.965Z,204.70
2018-12-02T14:58:47.292Z,91.07
2018-12-02T15:01:15.491Z,60.57
2018-12-02T15:03:43.681Z,67.80
2018-12-02T15:06:11.862Z,38.77
2018-12-02T15:08:40.043Z,17.50
2018-12-02T15:11:08.316Z,88.10
2018-12-02T15:13:36.509Z,79.73
2018-12-02T15:16:05.013Z,54.13
2018-12-02T15:18:33.309Z,30.50
2018-12-02T15:21:08.446Z,18.27
2018-12-02T15:23:36.670Z,17.83
2018-12-02T15:26:05.037Z,18.90
2018-12-02T15:28:33.280Z,21.00
2018-12-02T15:31:01.458Z,33.07
2018-12-02T15:33:29.595Z,22.73
2018-12-02T15:35:57.794Z,56.40
2018-12-02T15:38:26.048Z,44.40
2018-12-02T15:43:28.564Z,54.00
2018-12-02T15:45:56.725Z,25.63
2018-12-02T15:48:24.941Z,37.30
2018-12-02T15:50:53.141Z,28.57
2018-12-02T15:53:21.346Z,27.33
2018-12-02T15:55:49.553Z,37.40
2018-12-02T15:58:17.867Z,63.47
2018-12-02T16:00:46.814Z,57.53
2018-12-02T16:03:15.084Z,51.17
2018-12-02T16:05:43.317Z,50.87
2018-12-02T16:08:11.566Z,53.20
2018-12-02T16:10:39.868Z,73.70
2018-12-02T16:13:09.687Z,55.17
2018-12-02T16:15:37.996Z,31.10
2018-12-02T16:18:08.983Z,21.87
2018-12-02T16:20:48.079Z,24.13
2018-12-02T16:23:20.758Z,32.77
2018-12-02T16:25:48.997Z,49.17
2018-12-02T16:28:17.238Z,32.63
2018-12-02T16:30:45.527Z,32.30
2018-12-02T16:33:13.868Z,28.87
2018-12-02T16:35:42.110Z,21.67
2018-12-02T16:38:11.834Z,37.63
2018-12-02T16:40:40.088Z,48.13
2018-12-02T16:43:09.420Z,47.20
2018-12-02T16:45:39.804Z,35.17
2018-12-02T16:48:08.517Z,27.70
2018-12-02T16:50:40.170Z,29.10
2018-12-02T16:53:22.629Z,30.30
2018-12-02T16:55:58.394Z,35.47
2018-12-02T16:58:28.321Z,23.60
2018-12-02T17:01:02.456Z,34.60
2018-12-02T17:03:30.665Z,28.53
2018-12-02T17:05:58.918Z,28.53
2018-12-02T17:08:27.101Z,28.50
2018-12-02T17:10:55.322Z,38.93
2018-12-02T17:13:23.524Z,51.00
2018-12-02T17:15:51.742Z,53.80
2018-12-02T17:18:19.899Z,42.47
2018-12-02T17:20:48.079Z,39.40
2018-12-02T17:23:16.270Z,44.00
2018-12-02T17:25:44.524Z,41.80
2018-12-02T17:28:12.694Z,34.80
2018-12-02T17:30:44.098Z,9.67
2018-12-02T17:33:12.369Z,22.47
2018-12-02T17:35:40.541Z,30.20
2018-12-02T17:38:08.773Z,56.83
2018-12-02T17:40:36.986Z,30.10
2018-12-02T17:43:06.818Z,23.70
2018-12-02T17:45:35.055Z,19.63
2018-12-02T17:48:03.248Z,32.93
2018-12-02T17:50:31.482Z,33.50
2018-12-02T17:52:59.441Z,36.10
2018-12-02T17:55:27.594Z,36.87
2018-12-02T17:57:55.511Z,26.00
2018-12-02T18:00:25.713Z,36.70
2018-12-02T18:02:55.307Z,35.60
2018-12-02T18:05:25.317Z,35.47
2018-12-02T18:07:54.593Z,39.50
2018-12-02T18:10:22.793Z,39.30
2018-12-02T18:12:51.040Z,35.67
2018-12-02T18:15:19.245Z,42.43
2018-12-02T18:17:47.446Z,51.03
2018-12-02T18:20:16.754Z,57.97
2018-12-02T18:22:45.171Z,47.70
2018-12-02T18:25:15.515Z,54.90
2018-12-02T18:27:44.858Z,31.40
2018-12-02T18:30:13.601Z,42.63
2018-12-02T18:32:41.802Z,42.13
2018-12-02T18:35:18.510Z,43.63
2018-12-02T18:37:46.734Z,47.57
2018-12-02T18:40:14.980Z,40.73
2018-12-02T18:42:43.176Z,44.50
2018-12-02T18:45:11.382Z,44.83
2018-12-02T18:47:39.582Z,42.40
2018-12-02T18:50:10.573Z,46.40
2018-12-02T18:52:39.081Z,52.60
2018-12-02T18:55:09.547Z,80.57
2018-12-02T18:57:37.700Z,82.33
2018-12-02T19:00:14.779Z,78.00
2018-12-02T19:02:43.033Z,87.53
2018-12-02T19:05:11.185Z,69.87
2018-12-02T19:07:39.347Z,73.43
2018-12-02T19:10:10.683Z,67.93
2018-12-02T19:12:38.897Z,68.93
2018-12-02T19:15:10.914Z,74.83
2018-12-02T19:17:39.074Z,91.20
2018-12-02T19:20:12.540Z,195.37
2018-12-02T19:22:40.702Z,230.73
2018-12-02T19:25:10.955Z,222.73
2018-12-02T19:27:39.208Z,176.93
2018-12-02T19:30:12.572Z,184.00
2018-12-02T19:32:40.722Z,145.07
2018-12-02T19:35:26.446Z,155.93
2018-12-02T19:37:57.617Z,131.10
2018-12-02T19:40:25.882Z,171.40
2018-12-02T19:42:54.042Z,141.80
2018-12-02T19:45:22.222Z,108.37
2018-12-02T19:47:50.410Z,105.93
2018-12-02T19:50:19.481Z,138.90
2018-12-02T19:52:49.642Z,145.80
2018-12-02T19:55:17.784Z,183.37
2018-12-02T19:57:47.349Z,169.50
2018-12-02T20:00:25.537Z,174.47
2018-12-02T20:02:54.352Z,148.90
2018-12-02T20:05:22.498Z,154.23
2018-12-02T20:07:53.146Z,180.33
2018-12-02T20:10:23.160Z,171.10
2018-12-02T20:12:51.394Z,174.07
2018-12-02T20:15:19.574Z,173.60
2018-12-02T20:17:47.833Z,162.00
2018-12-02T20:20:22.546Z,166.87
2018-12-02T20:22:50.993Z,118.43
2018-12-02T20:25:20.197Z,112.30
2018-12-02T20:27:48.982Z,114.07
2018-12-02T20:30:18.373Z,160.90
2018-12-02T20:32:46.526Z,150.77
2018-12-02T20:35:14.803Z,138.77
2018-12-02T20:37:42.957Z,135.43
2018-12-02T20:40:14.358Z,219.07
2018-12-02T20:42:42.842Z,146.43
2018-12-02T20:45:12.344Z,143.50
2018-12-02T20:47:40.569Z,123.43
2018-12-02T20:50:13.702Z,120.90
2018-12-02T20:52:41.891Z,110.17
2018-12-02T20:55:11.381Z,90.70
2018-12-02T20:57:39.581Z,122.27
2018-12-02T21:00:11.648Z,64.57
2018-12-02T21:02:39.916Z,28.17
2018-12-02T21:05:11.010Z,74.00
2018-12-02T21:07:39.278Z,28.00
2018-12-02T21:10:10.378Z,6.67
2018-12-02T21:12:38.545Z,3.10
2018-12-02T21:15:11.235Z,4.60
2018-12-02T21:17:39.441Z,6.63
2018-12-02T21:20:10.929Z,5.70
2018-12-02T21:22:39.223Z,4.20
2018-12-02T21:25:11.921Z,3.90
2018-12-02T21:27:40.094Z,2.67
2018-12-02T21:30:19.705Z,6.00
2018-12-02T21:32:47.860Z,4.17
2018-12-02T21:35:16.038Z,8.10
2018-12-02T21:37:44.842Z,4.80
2018-12-02T21:40:14.519Z,8.30
2018-12-02T21:42:42.766Z,5.70
2018-12-02T21:45:14.996Z,8.97
2018-12-02T21:47:44.902Z,5.20
2018-12-02T21:50:16.693Z,5.60
2018-12-02T21:52:44.833Z,1.57
2018-12-02T21:55:13.049Z,2.60
2018-12-02T21:57:41.004Z,3.53
2018-12-02T22:00:14.273Z,4.53
2018-12-02T22:02:42.706Z,2.30
2018-12-02T22:05:10.883Z,6.60
2018-12-02T22:07:39.086Z,13.00
2018-12-02T22:10:10.301Z,37.23
2018-12-02T22:12:38.579Z,19.90
2018-12-02T22:15:07.894Z,6.70
2018-12-02T22:17:36.213Z,3.77
2018-12-02T22:20:09.110Z,5.63
2018-12-02T22:22:37.409Z,2.20
2018-12-02T22:25:07.829Z,4.73
2018-12-02T22:27:36.132Z,2.67
2018-12-02T22:30:05.306Z,1.13
2018-12-02T22:32:33.548Z,3.90
2018-12-02T22:35:01.866Z,2.20
2018-12-02T22:37:30.197Z,3.63
2018-12-02T22:39:58.442Z,1.87
2018-12-02T22:42:26.793Z,9.47
2018-12-02T22:44:55.120Z,1.50
2018-12-02T22:47:23.748Z,0.80
2018-12-02T22:49:52.020Z,1.50
2018-12-02T22:52:20.305Z,1.40
2018-12-02T22:54:48.785Z,0.70
2018-12-02T22:57:17.095Z,0.90
2018-12-02T22:59:45.385Z,0.90
2018-12-02T23:02:20.950Z,0.70
2018-12-02T23:04:49.284Z,0.80
2018-12-02T23:07:17.711Z,1.23
2018-12-02T23:09:46.071Z,3.87
2018-12-02T23:12:14.388Z,1.07
2018-12-02T23:14:42.721Z,1.70
2018-12-02T23:17:18.556Z,5.20
2018-12-02T23:19:46.804Z,1.07
2018-12-02T23:22:15.075Z,1.70
2018-12-02T23:24:43.396Z,0.80
2018-12-02T23:27:11.683Z,2.60
2018-12-02T23:29:40.176Z,0.70
2018-12-02T23:32:08.518Z,0.70
2018-12-02T23:34:36.954Z,3.57
2018-12-02T23:37:05.412Z,1.27
2018-12-02T23:39:33.746Z,0.70
2018-12-02T23:42:01.999Z,0.70
2018-12-02T23:44:30.242Z,1.37
2018-12-02T23:46:58.600Z,0.70
2018-12-02T23:49:27.086Z,0.87
2018-12-02T23:51:55.428Z,2.93
2018-12-02T23:54:23.702Z,3.63
2018-12-02T23:56:51.954Z,1.30
2018-12-02T23:59:20.230Z,0.77
